sensor_id;sensor_type;location;lat;lon;timestamp;pressure;altitude;pressure_sealevel;temperature;humidity
64292;BME280;50628;51.008;13.658;2022-10-28T00:03:00;100523.47;;;9.94;100.00
64292;BME280;50628;51.008;13.658;2022-10-28T00:08:02;100528.25;;;10.00;100.00
64292;BME280;50628;51.008;13.658;2022-10-28T00:13:05;100526.88;;;9.94;100.00
64292;BME280;50628;51.008;13.658;2022-10-28T00:18:06;100519.50;;;9.88;100.00
64292;BME280;50628;51.008;13.658;2022-10-28T00:23:08;100517.75;;;10.02;100.00
64292;BME280;50628;51.008;13.658;2022-10-28T00:28:11;100510.09;;;9.46;100.00
64292;BME280;50628;51.008;13.658;2022-10-28T00:33:13;100515.97;;;9.62;100.00
64292;BME280;50628;51.008;13.658;2022-10-28T00:38:14;100512.38;;;9.78;100.00
64292;BME280;50628;51.008;13.658;2022-10-28T00:43:37;100503.81;;;9.63;100.00
64292;BME280;50628;51.008;13.658;2022-10-28T00:48:41;100512.69;;;9.73;100.00
64292;BME280;50628;51.008;13.658;2022-10-28T00:53:44;100504.50;;;9.79;100.00
64292;BME280;50628;51.008;13.658;2022-10-28T00:58:49;100498.69;;;9.88;100.00
64292;BME280;50628;51.008;13.658;2022-10-28T01:03:51;100492.66;;;9.88;100.00
64292;BME280;50628;51.008;13.658;2022-10-28T01:08:54;100492.34;;;9.92;100.00
64292;BME280;50628;51.008;13.658;2022-10-28T01:14:14;100491.44;;;10.06;100.00
64292;BME280;50628;51.008;13.658;2022-10-28T01:19:49;100481.97;;;10.05;100.00
64292;BME280;50628;51.008;13.658;2022-10-28T01:25:14;100488.72;;;9.95;100.00
64292;BME280;50628;51.008;13.658;2022-10-28T01:30:22;100482.47;;;9.97;100.00
64292;BME280;50628;51.008;13.658;2022-10-28T01:35:29;100488.94;;;10.05;100.00
64292;BME280;50628;51.008;13.658;2022-10-28T01:40:37;100484.91;;;10.13;100.00
64292;BME280;50628;51.008;13.658;2022-10-28T01:45:49;100476.88;;;10.04;100.00
64292;BME280;50628;51.008;13.658;2022-10-28T01:50:56;100484.38;;;9.95;100.00
64292;BME280;50628;51.008;13.658;2022-10-28T01:56:03;100485.34;;;9.80;100.00
64292;BME280;50628;51.008;13.658;2022-10-28T02:01:08;100486.28;;;9.79;100.00
64292;BME280;50628;51.008;13.658;2022-10-28T02:06:15;100481.41;;;9.87;100.00
64292;BME280;50628;51.008;13.658;2022-10-28T02:11:28;100497.06;;;10.13;100.00
64292;BME280;50628;51.008;13.658;2022-10-28T02:16:41;100492.81;;;10.12;100.00
64292;BME280;50628;51.008;13.658;2022-10-28T02:21:57;100490.41;;;10.22;100.00
64292;BME280;50628;51.008;13.658;2022-10-28T02:27:07;100478.97;;;10.11;100.00
64292;BME280;50628;51.008;13.658;2022-10-28T02:32:16;100484.38;;;10.08;100.00
64292;BME280;50628;51.008;13.658;2022-10-28T02:37:23;100484.59;;;10.18;100.00
64292;BME280;50628;51.008;13.658;2022-10-28T02:42:29;100466.47;;;10.16;100.00
64292;BME280;50628;51.008;13.658;2022-10-28T02:47:35;100464.09;;;10.13;100.00
64292;BME280;50628;51.008;13.658;2022-10-28T02:52:41;100462.94;;;10.17;100.00
64292;BME280;50628;51.008;13.658;2022-10-28T02:57:47;100461.59;;;10.12;100.00
64292;BME280;50628;51.008;13.658;2022-10-28T03:02:49;100483.56;;;10.21;100.00
64292;BME280;50628;51.008;13.658;2022-10-28T03:07:52;100483.56;;;10.21;100.00
64292;BME280;50628;51.008;13.658;2022-10-28T03:12:54;100465.69;;;10.29;100.00
64292;BME280;50628;51.008;13.658;2022-10-28T03:17:55;100473.38;;;10.43;100.00
64292;BME280;50628;51.008;13.658;2022-10-28T03:22:58;100465.38;;;10.46;100.00
64292;BME280;50628;51.008;13.658;2022-10-28T03:28:00;100466.28;;;10.45;100.00
64292;BME280;50628;51.008;13.658;2022-10-28T03:33:02;100456.53;;;10.49;100.00
64292;BME280;50628;51.008;13.658;2022-10-28T03:38:05;100461.94;;;10.33;100.00
64292;BME280;50628;51.008;13.658;2022-10-28T03:43:06;100470.59;;;10.33;100.00
64292;BME280;50628;51.008;13.658;2022-10-28T03:48:08;100461.22;;;10.31;100.00
64292;BME280;50628;51.008;13.658;2022-10-28T03:53:11;100466.94;;;10.36;100.00
64292;BME280;50628;51.008;13.658;2022-10-28T03:58:13;100456.38;;;10.25;100.00
64292;BME280;50628;51.008;13.658;2022-10-28T04:03:15;100466.28;;;10.19;100.00
64292;BME280;50628;51.008;13.658;2022-10-28T04:08:19;100460.13;;;10.08;100.00
64292;BME280;50628;51.008;13.658;2022-10-28T04:13:21;100471.47;;;10.07;100.00
64292;BME280;50628;51.008;13.658;2022-10-28T04:18:23;100468.78;;;10.08;100.00
64292;BME280;50628;51.008;13.658;2022-10-28T04:23:26;100475.53;;;10.11;100.00
64292;BME280;50628;51.008;13.658;2022-10-28T04:28:28;100472.31;;;10.20;100.00
64292;BME280;50628;51.008;13.658;2022-10-28T04:33:30;100465.44;;;10.06;100.00
64292;BME280;50628;51.008;13.658;2022-10-28T04:38:33;100458.56;;;10.05;100.00
64292;BME280;50628;51.008;13.658;2022-10-28T04:43:35;100459.06;;;9.97;100.00
64292;BME280;50628;51.008;13.658;2022-10-28T04:48:36;100460.75;;;10.11;100.00
64292;BME280;50628;51.008;13.658;2022-10-28T04:59:05;100436.69;;;10.08;100.00
64292;BME280;50628;51.008;13.658;2022-10-28T05:04:07;100426.00;;;10.12;100.00
64292;BME280;50628;51.008;13.658;2022-10-28T05:09:08;100425.69;;;10.17;100.00
64292;BME280;50628;51.008;13.658;2022-10-28T05:14:12;100422.03;;;10.19;100.00
64292;BME280;50628;51.008;13.658;2022-10-28T05:19:13;100431.72;;;10.17;100.00
64292;BME280;50628;51.008;13.658;2022-10-28T05:24:15;100436.41;;;10.12;100.00
64292;BME280;50628;51.008;13.658;2022-10-28T05:29:18;100442.34;;;10.27;100.00
64292;BME280;50628;51.008;13.658;2022-10-28T05:34:20;100444.53;;;10.21;100.00
64292;BME280;50628;51.008;13.658;2022-10-28T05:39:21;100452.25;;;10.35;100.00
64292;BME280;50628;51.008;13.658;2022-10-28T05:44:24;100454.34;;;10.30;100.00
64292;BME280;50628;51.008;13.658;2022-10-28T05:49:26;100442.13;;;10.17;100.00
64292;BME280;50628;51.008;13.658;2022-10-28T05:54:28;100439.53;;;10.17;100.00
64292;BME280;50628;51.008;13.658;2022-10-28T05:59:31;100440.16;;;9.95;100.00
64292;BME280;50628;51.008;13.658;2022-10-28T06:04:33;100445.25;;;10.10;100.00
64292;BME280;50628;51.008;13.658;2022-10-28T06:09:34;100448.78;;;10.22;100.00
64292;BME280;50628;51.008;13.658;2022-10-28T06:14:37;100447.22;;;10.19;100.00
64292;BME280;50628;51.008;13.658;2022-10-28T06:19:39;100450.56;;;10.08;100.00
64292;BME280;50628;51.008;13.658;2022-10-28T06:24:41;100447.75;;;9.99;100.00
64292;BME280;50628;51.008;13.658;2022-10-28T06:29:44;100446.91;;;9.98;100.00
64292;BME280;50628;51.008;13.658;2022-10-28T06:34:46;100455.63;;;9.97;100.00
64292;BME280;50628;51.008;13.658;2022-10-28T06:39:47;100464.09;;;10.01;100.00
64292;BME280;50628;51.008;13.658;2022-10-28T06:44:53;100467.00;;;10.09;100.00
64292;BME280;50628;51.008;13.658;2022-10-28T06:49:55;100470.34;;;10.24;100.00
64292;BME280;50628;51.008;13.658;2022-10-28T06:54:57;100467.47;;;10.28;100.00
64292;BME280;50628;51.008;13.658;2022-10-28T07:00:00;100477.88;;;10.41;100.00
64292;BME280;50628;51.008;13.658;2022-10-28T07:05:01;100467.31;;;10.55;100.00
64292;BME280;50628;51.008;13.658;2022-10-28T07:10:04;100478.47;;;10.70;100.00
64292;BME280;50628;51.008;13.658;2022-10-28T07:15:08;100465.59;;;10.93;100.00
64292;BME280;50628;51.008;13.658;2022-10-28T07:20:10;100467.31;;;11.18;100.00
64292;BME280;50628;51.008;13.658;2022-10-28T07:25:12;100480.59;;;11.26;100.00
64292;BME280;50628;51.008;13.658;2022-10-28T07:30:15;100481.91;;;11.44;100.00
64292;BME280;50628;51.008;13.658;2022-10-28T07:35:17;100472.75;;;11.74;100.00
64292;BME280;50628;51.008;13.658;2022-10-28T07:40:19;100471.13;;;11.97;100.00
64292;BME280;50628;51.008;13.658;2022-10-28T07:45:23;100479.22;;;12.28;100.00
64292;BME280;50628;51.008;13.658;2022-10-28T07:50:25;100472.00;;;12.76;100.00
64292;BME280;50628;51.008;13.658;2022-10-28T07:55:27;100468.06;;;12.93;100.00
64292;BME280;50628;51.008;13.658;2022-10-28T08:00:30;100471.38;;;13.18;100.00
64292;BME280;50628;51.008;13.658;2022-10-28T08:05:31;100469.91;;;13.36;100.00
64292;BME280;50628;51.008;13.658;2022-10-28T08:10:33;100463.63;;;13.60;100.00
64292;BME280;50628;51.008;13.658;2022-10-28T08:15:36;100459.97;;;13.83;100.00
64292;BME280;50628;51.008;13.658;2022-10-28T08:20:38;100462.84;;;14.01;100.00
64292;BME280;50628;51.008;13.658;2022-10-28T08:25:47;100459.81;;;14.06;100.00
64292;BME280;50628;51.008;13.658;2022-10-28T08:30:50;100454.97;;;14.22;100.00
64292;BME280;50628;51.008;13.658;2022-10-28T08:35:52;100453.22;;;14.33;100.00
64292;BME280;50628;51.008;13.658;2022-10-28T08:40:59;100449.56;;;14.45;100.00
64292;BME280;50628;51.008;13.658;2022-10-28T08:46:10;100448.09;;;14.52;100.00
64292;BME280;50628;51.008;13.658;2022-10-28T08:51:17;100446.22;;;14.64;100.00
64292;BME280;50628;51.008;13.658;2022-10-28T08:56:24;100445.31;;;14.75;100.00
64292;BME280;50628;51.008;13.658;2022-10-28T09:01:35;100446.16;;;14.85;100.00
64292;BME280;50628;51.008;13.658;2022-10-28T09:06:40;100450.31;;;14.87;100.00
64292;BME280;50628;51.008;13.658;2022-10-28T09:11:50;100441.59;;;14.97;100.00
64292;BME280;50628;51.008;13.658;2022-10-28T09:17:05;100442.03;;;15.02;100.00
64292;BME280;50628;51.008;13.658;2022-10-28T09:22:22;100436.97;;;15.20;100.00
64292;BME280;50628;51.008;13.658;2022-10-28T09:27:51;100434.34;;;15.39;100.00
64292;BME280;50628;51.008;13.658;2022-10-28T09:33:03;100425.50;;;15.59;100.00
64292;BME280;50628;51.008;13.658;2022-10-28T09:38:15;100429.63;;;16.01;100.00
64292;BME280;50628;51.008;13.658;2022-10-28T09:43:24;100418.06;;;16.31;100.00
64292;BME280;50628;51.008;13.658;2022-10-28T09:48:30;100405.25;;;16.56;100.00
64292;BME280;50628;51.008;13.658;2022-10-28T09:53:38;100386.31;;;16.80;100.00
64292;BME280;50628;51.008;13.658;2022-10-28T09:58:44;100381.28;;;16.86;100.00
64292;BME280;50628;51.008;13.658;2022-10-28T10:03:49;100378.16;;;17.19;100.00
64292;BME280;50628;51.008;13.658;2022-10-28T10:08:52;100374.03;;;17.16;100.00
64292;BME280;50628;51.008;13.658;2022-10-28T10:13:56;100367.91;;;17.16;100.00
64292;BME280;50628;51.008;13.658;2022-10-28T10:19:02;100360.41;;;17.03;100.00
64292;BME280;50628;51.008;13.658;2022-10-28T10:24:23;100344.47;;;17.22;100.00
64292;BME280;50628;51.008;13.658;2022-10-28T10:29:26;100347.91;;;17.41;100.00
64292;BME280;50628;51.008;13.658;2022-10-28T10:34:31;100330.50;;;17.48;100.00
64292;BME280;50628;51.008;13.658;2022-10-28T10:39:35;100337.81;;;17.54;100.00
64292;BME280;50628;51.008;13.658;2022-10-28T10:44:38;100329.69;;;17.47;100.00
64292;BME280;50628;51.008;13.658;2022-10-28T10:49:43;100314.38;;;17.43;100.00
64292;BME280;50628;51.008;13.658;2022-10-28T10:54:56;100298.69;;;17.59;100.00
64292;BME280;50628;51.008;13.658;2022-10-28T10:59:59;100292.47;;;17.68;100.00
64292;BME280;50628;51.008;13.658;2022-10-28T11:05:05;100294.03;;;17.53;100.00
64292;BME280;50628;51.008;13.658;2022-10-28T11:10:19;100289.91;;;17.77;100.00
64292;BME280;50628;51.008;13.658;2022-10-28T11:15:24;100279.16;;;17.96;100.00
64292;BME280;50628;51.008;13.658;2022-10-28T11:20:34;100269.97;;;18.08;100.00
64292;BME280;50628;51.008;13.658;2022-10-28T11:25:44;100251.28;;;18.36;100.00
64292;BME280;50628;51.008;13.658;2022-10-28T11:30:53;100234.69;;;19.17;100.00
64292;BME280;50628;51.008;13.658;2022-10-28T11:36:08;100217.94;;;19.50;100.00
64292;BME280;50628;51.008;13.658;2022-10-28T11:41:27;100221.03;;;19.70;100.00
64292;BME280;50628;51.008;13.658;2022-10-28T11:46:39;100217.97;;;20.20;100.00
64292;BME280;50628;51.008;13.658;2022-10-28T11:51:49;100214.63;;;20.03;100.00
64292;BME280;50628;51.008;13.658;2022-10-28T11:56:58;100196.69;;;20.22;100.00
64292;BME280;50628;51.008;13.658;2022-10-28T12:02:11;100196.81;;;19.97;100.00
64292;BME280;50628;51.008;13.658;2022-10-28T12:07:39;100199.31;;;20.22;100.00
64292;BME280;50628;51.008;13.658;2022-10-28T12:12:49;100198.66;;;20.20;100.00
64292;BME280;50628;51.008;13.658;2022-10-28T12:17:57;100195.75;;;19.75;100.00
64292;BME280;50628;51.008;13.658;2022-10-28T12:23:09;100183.38;;;20.07;100.00
64292;BME280;50628;51.008;13.658;2022-10-28T12:28:16;100174.81;;;20.05;100.00
64292;BME280;50628;51.008;13.658;2022-10-28T12:33:24;100174.66;;;20.29;100.00
64292;BME280;50628;51.008;13.658;2022-10-28T12:38:33;100174.06;;;20.42;100.00
64292;BME280;50628;51.008;13.658;2022-10-28T12:43:42;100171.00;;;20.30;100.00
64292;BME280;50628;51.008;13.658;2022-10-28T12:48:49;100168.72;;;20.27;100.00
64292;BME280;50628;51.008;13.658;2022-10-28T12:53:59;100170.63;;;20.10;100.00
64292;BME280;50628;51.008;13.658;2022-10-28T12:59:06;100162.25;;;20.07;100.00
64292;BME280;50628;51.008;13.658;2022-10-28T13:04:12;100166.13;;;19.57;100.00
64292;BME280;50628;51.008;13.658;2022-10-28T13:09:30;100164.38;;;19.41;100.00
64292;BME280;50628;51.008;13.658;2022-10-28T13:20:21;100166.81;;;20.13;100.00
64292;BME280;50628;51.008;13.658;2022-10-28T13:25:47;100170.97;;;20.62;100.00
64292;BME280;50628;51.008;13.658;2022-10-28T13:30:52;100160.66;;;20.67;100.00
64292;BME280;50628;51.008;13.658;2022-10-28T13:36:08;100154.97;;;20.32;100.00
64292;BME280;50628;51.008;13.658;2022-10-28T13:41:31;100164.00;;;20.61;100.00
64292;BME280;50628;51.008;13.658;2022-10-28T13:52:26;100164.19;;;21.27;100.00
64292;BME280;50628;51.008;13.658;2022-10-28T13:57:31;100174.22;;;21.02;100.00
64292;BME280;50628;51.008;13.658;2022-10-28T14:02:36;100169.94;;;20.63;100.00
64292;BME280;50628;51.008;13.658;2022-10-28T14:07:49;100163.94;;;20.46;100.00
64292;BME280;50628;51.008;13.658;2022-10-28T14:12:54;100170.41;;;20.20;100.00
64292;BME280;50628;51.008;13.658;2022-10-28T14:17:59;100166.19;;;20.11;100.00
64292;BME280;50628;51.008;13.658;2022-10-28T14:28:53;100171.66;;;19.22;100.00
64292;BME280;50628;51.008;13.658;2022-10-28T14:34:24;100168.28;;;18.89;100.00
64292;BME280;50628;51.008;13.658;2022-10-28T14:39:38;100170.88;;;18.32;100.00
64292;BME280;50628;51.008;13.658;2022-10-28T14:44:57;100164.78;;;18.15;100.00
64292;BME280;50628;51.008;13.658;2022-10-28T14:50:15;100170.84;;;17.99;100.00
64292;BME280;50628;51.008;13.658;2022-10-28T14:55:21;100174.47;;;17.90;100.00
64292;BME280;50628;51.008;13.658;2022-10-28T15:00:26;100178.47;;;17.68;100.00
64292;BME280;50628;51.008;13.658;2022-10-28T15:05:29;100174.94;;;17.51;100.00
64292;BME280;50628;51.008;13.658;2022-10-28T15:10:32;100177.59;;;17.25;100.00
64292;BME280;50628;51.008;13.658;2022-10-28T15:15:35;100175.66;;;17.27;100.00
64292;BME280;50628;51.008;13.658;2022-10-28T15:20:37;100174.72;;;17.10;100.00
64292;BME280;50628;51.008;13.658;2022-10-28T15:25:39;100174.53;;;17.03;100.00
64292;BME280;50628;51.008;13.658;2022-10-28T15:30:42;100176.13;;;16.96;100.00
64292;BME280;50628;51.008;13.658;2022-10-28T15:35:44;100174.88;;;16.64;100.00
64292;BME280;50628;51.008;13.658;2022-10-28T15:40:46;100174.56;;;16.67;100.00
64292;BME280;50628;51.008;13.658;2022-10-28T15:45:49;100168.22;;;16.34;100.00
64292;BME280;50628;51.008;13.658;2022-10-28T15:51:11;100169.47;;;16.30;100.00
64292;BME280;50628;51.008;13.658;2022-10-28T15:56:18;100181.78;;;16.30;100.00
64292;BME280;50628;51.008;13.658;2022-10-28T16:01:30;100174.06;;;16.10;100.00
64292;BME280;50628;51.008;13.658;2022-10-28T16:06:37;100174.91;;;16.29;100.00
64292;BME280;50628;51.008;13.658;2022-10-28T16:11:41;100187.03;;;16.12;100.00
64292;BME280;50628;51.008;13.658;2022-10-28T16:16:45;100173.78;;;16.13;100.00
64292;BME280;50628;51.008;13.658;2022-10-28T16:21:47;100182.53;;;16.04;100.00
64292;BME280;50628;51.008;13.658;2022-10-28T16:26:49;100170.91;;;16.07;100.00
64292;BME280;50628;51.008;13.658;2022-10-28T16:31:52;100180.44;;;16.08;100.00
64292;BME280;50628;51.008;13.658;2022-10-28T16:36:53;100182.38;;;15.88;100.00
64292;BME280;50628;51.008;13.658;2022-10-28T16:41:56;100183.38;;;15.77;100.00
64292;BME280;50628;51.008;13.658;2022-10-28T16:46:59;100177.06;;;15.70;100.00
64292;BME280;50628;51.008;13.658;2022-10-28T16:52:01;100188.69;;;15.57;100.00
64292;BME280;50628;51.008;13.658;2022-10-28T16:57:03;100194.19;;;15.64;100.00
64292;BME280;50628;51.008;13.658;2022-10-28T17:02:12;100199.91;;;15.50;100.00
64292;BME280;50628;51.008;13.658;2022-10-28T17:07:15;100205.34;;;15.39;100.00
64292;BME280;50628;51.008;13.658;2022-10-28T17:12:19;100211.41;;;15.29;100.00
64292;BME280;50628;51.008;13.658;2022-10-28T17:17:22;100205.38;;;15.19;100.00
64292;BME280;50628;51.008;13.658;2022-10-28T17:22:24;100206.75;;;15.23;100.00
64292;BME280;50628;51.008;13.658;2022-10-28T17:27:26;100210.91;;;15.26;100.00
64292;BME280;50628;51.008;13.658;2022-10-28T17:32:29;100212.28;;;15.30;100.00
64292;BME280;50628;51.008;13.658;2022-10-28T17:37:31;100219.59;;;15.17;100.00
64292;BME280;50628;51.008;13.658;2022-10-28T17:42:33;100228.34;;;15.07;100.00
64292;BME280;50628;51.008;13.658;2022-10-28T17:47:36;100230.97;;;14.98;100.00
64292;BME280;50628;51.008;13.658;2022-10-28T17:52:38;100223.94;;;14.88;100.00
64292;BME280;50628;51.008;13.658;2022-10-28T17:57:39;100233.59;;;14.78;100.00
64292;BME280;50628;51.008;13.658;2022-10-28T18:02:45;100228.75;;;14.83;100.00
64292;BME280;50628;51.008;13.658;2022-10-28T18:07:47;100228.91;;;14.82;100.00
64292;BME280;50628;51.008;13.658;2022-10-28T18:12:48;100230.56;;;14.83;100.00
64292;BME280;50628;51.008;13.658;2022-10-28T18:17:52;100222.53;;;14.45;100.00
64292;BME280;50628;51.008;13.658;2022-10-28T18:22:54;100236.03;;;14.21;100.00
64292;BME280;50628;51.008;13.658;2022-10-28T18:27:56;100233.25;;;14.23;100.00
64292;BME280;50628;51.008;13.658;2022-10-28T18:32:59;100238.31;;;14.05;100.00
64292;BME280;50628;51.008;13.658;2022-10-28T18:38:01;100243.09;;;13.90;100.00
64292;BME280;50628;51.008;13.658;2022-10-28T18:43:02;100239.91;;;13.87;100.00
64292;BME280;50628;51.008;13.658;2022-10-28T18:48:06;100245.38;;;13.74;100.00
64292;BME280;50628;51.008;13.658;2022-10-28T18:53:08;100238.41;;;13.53;100.00
64292;BME280;50628;51.008;13.658;2022-10-28T18:58:10;100234.50;;;13.48;100.00
64292;BME280;50628;51.008;13.658;2022-10-28T19:03:18;100235.59;;;13.45;100.00
64292;BME280;50628;51.008;13.658;2022-10-28T19:08:20;100236.94;;;13.39;100.00
64292;BME280;50628;51.008;13.658;2022-10-28T19:13:22;100242.00;;;13.31;100.00
64292;BME280;50628;51.008;13.658;2022-10-28T19:18:25;100235.84;;;13.21;100.00
64292;BME280;50628;51.008;13.658;2022-10-28T19:23:27;100239.84;;;13.25;100.00
64292;BME280;50628;51.008;13.658;2022-10-28T19:28:29;100233.81;;;13.25;100.00
64292;BME280;50628;51.008;13.658;2022-10-28T19:33:32;100238.97;;;13.15;100.00
64292;BME280;50628;51.008;13.658;2022-10-28T19:38:35;100238.22;;;13.03;100.00
64292;BME280;50628;51.008;13.658;2022-10-28T19:43:37;100243.19;;;13.06;100.00
64292;BME280;50628;51.008;13.658;2022-10-28T19:48:43;100250.69;;;12.99;100.00
64292;BME280;50628;51.008;13.658;2022-10-28T19:53:46;100249.06;;;12.98;100.00
64292;BME280;50628;51.008;13.658;2022-10-28T19:58:50;100259.44;;;12.89;100.00
64292;BME280;50628;51.008;13.658;2022-10-28T20:03:55;100256.94;;;12.87;100.00
64292;BME280;50628;51.008;13.658;2022-10-28T20:08:56;100262.41;;;12.84;100.00
64292;BME280;50628;51.008;13.658;2022-10-28T20:13:59;100259.16;;;12.71;100.00
64292;BME280;50628;51.008;13.658;2022-10-28T20:19:04;100267.34;;;12.66;100.00
64292;BME280;50628;51.008;13.658;2022-10-28T20:24:06;100269.00;;;12.67;100.00
64292;BME280;50628;51.008;13.658;2022-10-28T20:29:08;100267.06;;;12.81;100.00
64292;BME280;50628;51.008;13.658;2022-10-28T20:34:14;100271.31;;;12.82;100.00
64292;BME280;50628;51.008;13.658;2022-10-28T20:39:17;100270.06;;;12.65;100.00
64292;BME280;50628;51.008;13.658;2022-10-28T20:44:20;100273.13;;;12.70;100.00
64292;BME280;50628;51.008;13.658;2022-10-28T20:49:23;100274.72;;;12.61;100.00
64292;BME280;50628;51.008;13.658;2022-10-28T20:54:24;100290.75;;;12.56;100.00
64292;BME280;50628;51.008;13.658;2022-10-28T20:59:26;100285.81;;;12.42;100.00
64292;BME280;50628;51.008;13.658;2022-10-28T21:04:29;100292.03;;;12.30;100.00
64292;BME280;50628;51.008;13.658;2022-10-28T21:09:31;100296.16;;;12.32;100.00
64292;BME280;50628;51.008;13.658;2022-10-28T21:14:33;100303.06;;;12.22;100.00
64292;BME280;50628;51.008;13.658;2022-10-28T21:19:36;100305.06;;;12.19;100.00
64292;BME280;50628;51.008;13.658;2022-10-28T21:24:38;100296.41;;;12.18;100.00
64292;BME280;50628;51.008;13.658;2022-10-28T21:29:41;100296.31;;;12.20;100.00
64292;BME280;50628;51.008;13.658;2022-10-28T21:34:44;100302.25;;;12.10;100.00
64292;BME280;50628;51.008;13.658;2022-10-28T21:39:46;100305.31;;;12.04;100.00
64292;BME280;50628;51.008;13.658;2022-10-28T21:44:50;100304.72;;;12.23;100.00
64292;BME280;50628;51.008;13.658;2022-10-28T21:49:54;100300.06;;;12.27;100.00
64292;BME280;50628;51.008;13.658;2022-10-28T21:54:55;100299.25;;;12.26;100.00
64292;BME280;50628;51.008;13.658;2022-10-28T21:59:57;100302.47;;;12.07;100.00
64292;BME280;50628;51.008;13.658;2022-10-28T22:05:00;100302.00;;;12.02;100.00
64292;BME280;50628;51.008;13.658;2022-10-28T22:10:02;100313.38;;;11.90;100.00
64292;BME280;50628;51.008;13.658;2022-10-28T22:15:05;100313.34;;;11.79;100.00
64292;BME280;50628;51.008;13.658;2022-10-28T22:20:09;100309.28;;;11.63;100.00
64292;BME280;50628;51.008;13.658;2022-10-28T22:25:10;100310.72;;;11.67;100.00
64292;BME280;50628;51.008;13.658;2022-10-28T22:30:13;100320.41;;;11.43;100.00
64292;BME280;50628;51.008;13.658;2022-10-28T22:35:16;100316.78;;;11.57;100.00
64292;BME280;50628;51.008;13.658;2022-10-28T22:40:20;100321.59;;;11.50;100.00
64292;BME280;50628;51.008;13.658;2022-10-28T22:45:22;100323.25;;;11.40;100.00
64292;BME280;50628;51.008;13.658;2022-10-28T22:50:25;100322.63;;;11.36;100.00
64292;BME280;50628;51.008;13.658;2022-10-28T22:55:27;100319.22;;;11.47;100.00
64292;BME280;50628;51.008;13.658;2022-10-28T23:00:29;100322.78;;;11.46;100.00
64292;BME280;50628;51.008;13.658;2022-10-28T23:05:32;100321.78;;;11.24;100.00
64292;BME280;50628;51.008;13.658;2022-10-28T23:10:34;100316.31;;;11.16;100.00
64292;BME280;50628;51.008;13.658;2022-10-28T23:15:35;100321.66;;;11.26;100.00
64292;BME280;50628;51.008;13.658;2022-10-28T23:20:38;100321.00;;;11.11;100.00
64292;BME280;50628;51.008;13.658;2022-10-28T23:25:40;100326.84;;;11.26;100.00
64292;BME280;50628;51.008;13.658;2022-10-28T23:30:42;100337.41;;;11.24;100.00
64292;BME280;50628;51.008;13.658;2022-10-28T23:35:52;100340.03;;;11.24;100.00
64292;BME280;50628;51.008;13.658;2022-10-28T23:40:55;100347.22;;;11.21;100.00
64292;BME280;50628;51.008;13.658;2022-10-28T23:45:57;100336.75;;;11.10;100.00
64292;BME280;50628;51.008;13.658;2022-10-28T23:51:01;100335.53;;;11.26;100.00
64292;BME280;50628;51.008;13.658;2022-10-28T23:56:03;100333.84;;;11.25;100.00
